Pearcy, Arkansas
Current Conditions -  °F | °C
As of 7:53 AM on Sunday 23 Nov 2014 (Local Time) from KHOT Reporting Station
Moderate Rain Moderate Rain  
Wind Chill: 15°   Ceiling: 500
Heat Index: 15°   Visibility: 4mi
Dew Point: 14°   Wind: 6mph
Humidity: 96%   Direction: 150°SSE
Pressure: 29.61"   Gusts: NA
Location:  34.43°N, 93.29°W
Report Text: KHOT 231353Z AUTO 15005KT 4SM RA BR OVC005 15/14 A2961 RMK AO2 CIG 003V009 SLP023 P0006 T01500144
Loading
Personal Weather Stations






























Interactive Weather Map New forecast layout! Learn more

10-Day Weather Forecast

Advertisements
Track Severe Weather on mobile